sensor_id;sensor_type;location;lat;lon;timestamp;pressure;altitude;pressure_sealevel;temperature;humidity
18436;BME280;9346;52.006;4.720;2023-11-18T00:01:12;102255.38;;;6.80;100.00
18436;BME280;9346;52.006;4.720;2023-11-18T00:03:39;102258.72;;;6.82;100.00
18436;BME280;9346;52.006;4.720;2023-11-18T00:06:07;102243.78;;;6.78;100.00
18436;BME280;9346;52.006;4.720;2023-11-18T00:08:35;102244.00;;;6.76;100.00
18436;BME280;9346;52.006;4.720;2023-11-18T00:11:01;102244.22;;;6.75;100.00
18436;BME280;9346;52.006;4.720;2023-11-18T00:13:32;102247.81;;;6.75;100.00
18436;BME280;9346;52.006;4.720;2023-11-18T00:15:59;102236.22;;;6.73;100.00
18436;BME280;9346;52.006;4.720;2023-11-18T00:18:27;102231.81;;;6.72;100.00
18436;BME280;9346;52.006;4.720;2023-11-18T00:20:53;102235.19;;;6.68;100.00
18436;BME280;9346;52.006;4.720;2023-11-18T00:23:22;102233.72;;;6.65;100.00
18436;BME280;9346;52.006;4.720;2023-11-18T00:25:49;102232.44;;;6.61;100.00
18436;BME280;9346;52.006;4.720;2023-11-18T00:28:18;102244.69;;;6.59;100.00
18436;BME280;9346;52.006;4.720;2023-11-18T00:30:47;102240.25;;;6.58;100.00
18436;BME280;9346;52.006;4.720;2023-11-18T00:33:15;102237.53;;;6.58;100.00
18436;BME280;9346;52.006;4.720;2023-11-18T00:35:42;102243.44;;;6.55;100.00
18436;BME280;9346;52.006;4.720;2023-11-18T00:38:10;102247.84;;;6.56;100.00
18436;BME280;9346;52.006;4.720;2023-11-18T00:40:37;102248.66;;;6.63;100.00
18436;BME280;9346;52.006;4.720;2023-11-18T00:43:04;102238.78;;;6.62;100.00
18436;BME280;9346;52.006;4.720;2023-11-18T00:45:33;102239.19;;;6.59;100.00
18436;BME280;9346;52.006;4.720;2023-11-18T00:48:02;102239.03;;;6.54;100.00
18436;BME280;9346;52.006;4.720;2023-11-18T00:50:31;102237.94;;;6.55;100.00
18436;BME280;9346;52.006;4.720;2023-11-18T00:52:59;102253.97;;;6.58;100.00
18436;BME280;9346;52.006;4.720;2023-11-18T00:55:28;102251.63;;;6.55;100.00
18436;BME280;9346;52.006;4.720;2023-11-18T00:57:57;102244.91;;;6.51;100.00
18436;BME280;9346;52.006;4.720;2023-11-18T01:00:25;102252.06;;;6.52;100.00
18436;BME280;9346;52.006;4.720;2023-11-18T01:02:53;102242.56;;;6.54;100.00
18436;BME280;9346;52.006;4.720;2023-11-18T01:05:22;102248.06;;;6.54;100.00
18436;BME280;9346;52.006;4.720;2023-11-18T01:07:49;102261.94;;;6.53;100.00
18436;BME280;9346;52.006;4.720;2023-11-18T01:10:16;102262.38;;;6.50;100.00
18436;BME280;9346;52.006;4.720;2023-11-18T01:12:44;102259.84;;;6.48;100.00
18436;BME280;9346;52.006;4.720;2023-11-18T01:15:12;102256.50;;;6.46;100.00
18436;BME280;9346;52.006;4.720;2023-11-18T01:17:40;102251.03;;;6.46;100.00
18436;BME280;9346;52.006;4.720;2023-11-18T01:20:08;102243.44;;;6.48;100.00
18436;BME280;9346;52.006;4.720;2023-11-18T01:22:37;102254.16;;;6.50;100.00
18436;BME280;9346;52.006;4.720;2023-11-18T01:25:05;102246.81;;;6.50;100.00
18436;BME280;9346;52.006;4.720;2023-11-18T01:27:34;102253.13;;;6.51;100.00
18436;BME280;9346;52.006;4.720;2023-11-18T01:30:01;102259.22;;;6.53;100.00
18436;BME280;9346;52.006;4.720;2023-11-18T01:32:29;102252.06;;;6.52;100.00
18436;BME280;9346;52.006;4.720;2023-11-18T01:34:56;102256.91;;;6.56;100.00
18436;BME280;9346;52.006;4.720;2023-11-18T01:37:23;102266.56;;;6.59;100.00
18436;BME280;9346;52.006;4.720;2023-11-18T01:39:51;102272.47;;;6.62;100.00
18436;BME280;9346;52.006;4.720;2023-11-18T01:42:18;102265.72;;;6.65;100.00
18436;BME280;9346;52.006;4.720;2023-11-18T01:44:44;102271.00;;;6.66;100.00
18436;BME280;9346;52.006;4.720;2023-11-18T01:47:11;102262.56;;;6.68;100.00
18436;BME280;9346;52.006;4.720;2023-11-18T01:49:38;102271.41;;;6.70;100.00
18436;BME280;9346;52.006;4.720;2023-11-18T01:52:07;102262.78;;;6.73;100.00
18436;BME280;9346;52.006;4.720;2023-11-18T01:54:36;102270.75;;;6.74;100.00
18436;BME280;9346;52.006;4.720;2023-11-18T01:57:06;102273.28;;;6.76;100.00
18436;BME280;9346;52.006;4.720;2023-11-18T01:59:34;102274.75;;;6.78;100.00
18436;BME280;9346;52.006;4.720;2023-11-18T02:02:04;102270.75;;;6.81;100.00
18436;BME280;9346;52.006;4.720;2023-11-18T02:04:31;102269.06;;;6.80;100.00
18436;BME280;9346;52.006;4.720;2023-11-18T02:06:58;102265.91;;;6.83;100.00
18436;BME280;9346;52.006;4.720;2023-11-18T02:09:29;102264.19;;;6.82;100.00
18436;BME280;9346;52.006;4.720;2023-11-18T02:11:59;102266.13;;;6.81;100.00
18436;BME280;9346;52.006;4.720;2023-11-18T02:14:30;102270.31;;;6.84;100.00
18436;BME280;9346;52.006;4.720;2023-11-18T02:16:59;102264.63;;;6.85;100.00
18436;BME280;9346;52.006;4.720;2023-11-18T02:19:29;102274.72;;;6.85;100.00
18436;BME280;9346;52.006;4.720;2023-11-18T02:21:58;102275.38;;;6.87;100.00
18436;BME280;9346;52.006;4.720;2023-11-18T02:24:27;102271.34;;;6.89;100.00
18436;BME280;9346;52.006;4.720;2023-11-18T02:26:58;102270.28;;;6.90;100.00
18436;BME280;9346;52.006;4.720;2023-11-18T02:29:27;102255.75;;;6.90;100.00
18436;BME280;9346;52.006;4.720;2023-11-18T02:31:58;102257.66;;;6.89;100.00
18436;BME280;9346;52.006;4.720;2023-11-18T02:34:34;102249.44;;;6.89;100.00
18436;BME280;9346;52.006;4.720;2023-11-18T02:37:05;102240.59;;;6.88;100.00
18436;BME280;9346;52.006;4.720;2023-11-18T02:39:37;102233.63;;;6.85;100.00
18436;BME280;9346;52.006;4.720;2023-11-18T02:42:10;102230.28;;;6.83;100.00
18436;BME280;9346;52.006;4.720;2023-11-18T02:44:39;102235.78;;;6.83;100.00
18436;BME280;9346;52.006;4.720;2023-11-18T02:47:06;102226.50;;;6.84;100.00
18436;BME280;9346;52.006;4.720;2023-11-18T02:49:34;102231.75;;;6.85;100.00
18436;BME280;9346;52.006;4.720;2023-11-18T02:52:01;102230.28;;;6.83;100.00
18436;BME280;9346;52.006;4.720;2023-11-18T02:54:28;102225.84;;;6.82;100.00
18436;BME280;9346;52.006;4.720;2023-11-18T02:56:55;102222.28;;;6.81;100.00
18436;BME280;9346;52.006;4.720;2023-11-18T02:59:24;102219.34;;;6.83;100.00
18436;BME280;9346;52.006;4.720;2023-11-18T03:01:53;102214.47;;;6.85;100.00
18436;BME280;9346;52.006;4.720;2023-11-18T03:04:20;102219.72;;;6.86;100.00
18436;BME280;9346;52.006;4.720;2023-11-18T03:06:46;102234.91;;;6.89;100.00
18436;BME280;9346;52.006;4.720;2023-11-18T03:09:12;102226.44;;;6.90;100.00
18436;BME280;9346;52.006;4.720;2023-11-18T03:11:40;102226.22;;;6.92;100.00
18436;BME280;9346;52.006;4.720;2023-11-18T03:14:09;102214.66;;;6.90;100.00
18436;BME280;9346;52.006;4.720;2023-11-18T03:16:39;102217.41;;;6.90;100.00
18436;BME280;9346;52.006;4.720;2023-11-18T03:19:06;102216.34;;;6.91;100.00
18436;BME280;9346;52.006;4.720;2023-11-18T03:21:34;102216.34;;;6.91;100.00
18436;BME280;9346;52.006;4.720;2023-11-18T03:24:01;102203.28;;;6.93;100.00
18436;BME280;9346;52.006;4.720;2023-11-18T03:26:27;102191.69;;;6.91;100.00
18436;BME280;9346;52.006;4.720;2023-11-18T03:28:54;102192.31;;;6.93;100.00
18436;BME280;9346;52.006;4.720;2023-11-18T03:31:21;102181.38;;;6.93;100.00
18436;BME280;9346;52.006;4.720;2023-11-18T03:33:49;102167.66;;;6.93;100.00
18436;BME280;9346;52.006;4.720;2023-11-18T03:36:17;102156.50;;;6.95;100.00
18436;BME280;9346;52.006;4.720;2023-11-18T03:38:44;102146.78;;;6.92;100.00
18436;BME280;9346;52.006;4.720;2023-11-18T03:41:11;102156.50;;;6.95;100.00
18436;BME280;9346;52.006;4.720;2023-11-18T03:43:38;102155.22;;;6.97;100.00
18436;BME280;9346;52.006;4.720;2023-11-18T03:46:05;102151.41;;;6.98;100.00
18436;BME280;9346;52.006;4.720;2023-11-18T03:48:32;102147.63;;;6.99;100.00
18436;BME280;9346;52.006;4.720;2023-11-18T03:51:02;102149.28;;;7.00;100.00
18436;BME280;9346;52.006;4.720;2023-11-18T03:53:29;102142.75;;;7.01;100.00
18436;BME280;9346;52.006;4.720;2023-11-18T03:55:59;102143.38;;;7.03;100.00
18436;BME280;9346;52.006;4.720;2023-11-18T03:58:25;102148.84;;;7.03;100.00
18436;BME280;9346;52.006;4.720;2023-11-18T04:00:52;102140.84;;;7.02;100.00
18436;BME280;9346;52.006;4.720;2023-11-18T04:03:19;102133.28;;;7.04;100.00
18436;BME280;9346;52.006;4.720;2023-11-18T04:05:46;102124.81;;;7.05;100.00
18436;BME280;9346;52.006;4.720;2023-11-18T04:08:15;102128.38;;;7.06;100.00
18436;BME280;9346;52.006;4.720;2023-11-18T04:10:42;102120.16;;;7.06;100.00
18436;BME280;9346;52.006;4.720;2023-11-18T04:13:09;102114.91;;;7.04;100.00
18436;BME280;9346;52.006;4.720;2023-11-18T04:15:36;102101.84;;;7.06;100.00
18436;BME280;9346;52.006;4.720;2023-11-18T04:18:03;102099.09;;;7.06;100.00
18436;BME280;9346;52.006;4.720;2023-11-18T04:20:31;102097.41;;;7.05;100.00
18436;BME280;9346;52.006;4.720;2023-11-18T04:22:58;102086.69;;;7.04;100.00
18436;BME280;9346;52.006;4.720;2023-11-18T04:25:26;102085.63;;;7.05;100.00
18436;BME280;9346;52.006;4.720;2023-11-18T04:27:53;102083.47;;;7.07;100.00
18436;BME280;9346;52.006;4.720;2023-11-18T04:30:20;102082.66;;;7.06;100.00
18436;BME280;9346;52.006;4.720;2023-11-18T04:32:46;102082.66;;;7.06;100.00
18436;BME280;9346;52.006;4.720;2023-11-18T04:35:13;102088.97;;;7.07;100.00
18436;BME280;9346;52.006;4.720;2023-11-18T04:37:40;102091.91;;;7.05;100.00
18436;BME280;9346;52.006;4.720;2023-11-18T04:40:09;102097.19;;;7.07;100.00
18436;BME280;9346;52.006;4.720;2023-11-18T04:42:39;102080.53;;;7.08;100.00
18436;BME280;9346;52.006;4.720;2023-11-18T04:45:06;102071.25;;;7.09;100.00
18436;BME280;9346;52.006;4.720;2023-11-18T04:47:38;102081.16;;;7.10;100.00
18436;BME280;9346;52.006;4.720;2023-11-18T04:50:05;102069.13;;;7.11;100.00
18436;BME280;9346;52.006;4.720;2023-11-18T04:52:33;102076.31;;;7.12;100.00
18436;BME280;9346;52.006;4.720;2023-11-18T04:55:00;102067.00;;;7.13;100.00
18436;BME280;9346;52.006;4.720;2023-11-18T04:57:27;102059.41;;;7.15;100.00
18436;BME280;9346;52.006;4.720;2023-11-18T04:59:55;102050.13;;;7.16;100.00
18436;BME280;9346;52.006;4.720;2023-11-18T05:02:22;102044.66;;;7.16;100.00
18436;BME280;9346;52.006;4.720;2023-11-18T05:04:50;102045.28;;;7.18;100.00
18436;BME280;9346;52.006;4.720;2023-11-18T05:07:16;102054.31;;;7.19;100.00
18436;BME280;9346;52.006;4.720;2023-11-18T05:09:43;102050.50;;;7.20;100.00
18436;BME280;9346;52.006;4.720;2023-11-18T05:12:10;102043.75;;;7.22;100.00
18436;BME280;9346;52.006;4.720;2023-11-18T05:14:37;102036.56;;;7.21;100.00
18436;BME280;9346;52.006;4.720;2023-11-18T05:17:06;102037.44;;;7.22;100.00
18436;BME280;9346;52.006;4.720;2023-11-18T05:19:33;102031.09;;;7.21;100.00
18436;BME280;9346;52.006;4.720;2023-11-18T05:22:00;102023.94;;;7.20;100.00
18436;BME280;9346;52.006;4.720;2023-11-18T05:24:27;102026.69;;;7.20;100.00
18436;BME280;9346;52.006;4.720;2023-11-18T05:26:54;102037.66;;;7.20;100.00
18436;BME280;9346;52.006;4.720;2023-11-18T05:29:21;102028.34;;;7.21;100.00
18436;BME280;9346;52.006;4.720;2023-11-18T05:31:51;102018.03;;;7.23;100.00
18436;BME280;9346;52.006;4.720;2023-11-18T05:34:19;102012.53;;;7.23;100.00
18436;BME280;9346;52.006;4.720;2023-11-18T05:36:47;102011.69;;;7.23;100.00
18436;BME280;9346;52.006;4.720;2023-11-18T05:39:16;102017.81;;;7.25;100.00
18436;BME280;9346;52.006;4.720;2023-11-18T05:41:45;102006.00;;;7.24;100.00
18436;BME280;9346;52.006;4.720;2023-11-18T05:44:15;102004.94;;;7.25;100.00
18436;BME280;9346;52.006;4.720;2023-11-18T05:46:44;102012.94;;;7.27;100.00
18436;BME280;9346;52.006;4.720;2023-11-18T05:49:13;102003.88;;;7.26;100.00
18436;BME280;9346;52.006;4.720;2023-11-18T05:51:41;102001.13;;;7.26;100.00
18436;BME280;9346;52.006;4.720;2023-11-18T05:54:08;101997.09;;;7.29;100.00
18436;BME280;9346;52.006;4.720;2023-11-18T05:56:35;101993.53;;;7.28;100.00
18436;BME280;9346;52.006;4.720;2023-11-18T05:59:02;101986.34;;;7.27;100.00
18436;BME280;9346;52.006;4.720;2023-11-18T06:01:29;101995.44;;;7.28;100.00
18436;BME280;9346;52.006;4.720;2023-11-18T06:03:56;101997.09;;;7.29;100.00
18436;BME280;9346;52.006;4.720;2023-11-18T06:06:24;101985.75;;;7.25;100.00
18436;BME280;9346;52.006;4.720;2023-11-18T06:08:53;101990.19;;;7.26;100.00
18436;BME280;9346;52.006;4.720;2023-11-18T06:11:19;101990.19;;;7.26;100.00
18436;BME280;9346;52.006;4.720;2023-11-18T06:13:49;101986.81;;;7.24;100.00
18436;BME280;9346;52.006;4.720;2023-11-18T06:16:17;101970.38;;;7.24;100.00
18436;BME280;9346;52.006;4.720;2023-11-18T06:18:46;101952.66;;;7.27;100.00
18436;BME280;9346;52.006;4.720;2023-11-18T06:21:13;101955.63;;;7.25;100.00
18436;BME280;9346;52.006;4.720;2023-11-18T06:23:40;101961.09;;;7.25;100.00
18436;BME280;9346;52.006;4.720;2023-11-18T06:26:09;101965.72;;;7.25;100.00
18436;BME280;9346;52.006;4.720;2023-11-18T06:28:38;101961.91;;;7.26;100.00
18436;BME280;9346;52.006;4.720;2023-11-18T06:31:05;101976.69;;;7.25;100.00
18436;BME280;9346;52.006;4.720;2023-11-18T06:33:36;101974.56;;;7.27;100.00
18436;BME280;9346;52.006;4.720;2023-11-18T06:36:06;101966.34;;;7.27;100.00
18436;BME280;9346;52.006;4.720;2023-11-18T06:38:32;101955.63;;;7.25;100.00
18436;BME280;9346;52.006;4.720;2023-11-18T06:41:00;101947.16;;;7.27;100.00
18436;BME280;9346;52.006;4.720;2023-11-18T06:43:30;101950.50;;;7.29;100.00
18436;BME280;9346;52.006;4.720;2023-11-18T06:46:11;101953.25;;;7.29;100.00
18436;BME280;9346;52.006;4.720;2023-11-18T06:48:39;101958.72;;;7.29;100.00
18436;BME280;9346;52.006;4.720;2023-11-18T06:51:06;101956.84;;;7.29;100.00
18436;BME280;9346;52.006;4.720;2023-11-18T06:53:34;101962.09;;;7.31;100.00
18436;BME280;9346;52.006;4.720;2023-11-18T06:56:01;101958.28;;;7.32;100.00
18436;BME280;9346;52.006;4.720;2023-11-18T06:58:27;101953.66;;;7.32;100.00
18436;BME280;9346;52.006;4.720;2023-11-18T07:00:56;101953.66;;;7.32;100.00
18436;BME280;9346;52.006;4.720;2023-11-18T07:03:23;101948.16;;;7.32;100.00
18436;BME280;9346;52.006;4.720;2023-11-18T07:05:50;101952.56;;;7.33;100.00
18436;BME280;9346;52.006;4.720;2023-11-18T07:08:16;101948.16;;;7.32;100.00
18436;BME280;9346;52.006;4.720;2023-11-18T07:10:43;101959.13;;;7.32;100.00
18436;BME280;9346;52.006;4.720;2023-11-18T07:13:10;101970.09;;;7.32;100.00
18436;BME280;9346;52.006;4.720;2023-11-18T07:15:37;101964.63;;;7.32;100.00
18436;BME280;9346;52.006;4.720;2023-11-18T07:18:07;101969.03;;;7.33;100.00
18436;BME280;9346;52.006;4.720;2023-11-18T07:20:34;101961.88;;;7.32;100.00
18436;BME280;9346;52.006;4.720;2023-11-18T07:23:01;101965.47;;;7.33;100.00
18436;BME280;9346;52.006;4.720;2023-11-18T07:25:27;101976.78;;;7.36;100.00
18436;BME280;9346;52.006;4.720;2023-11-18T07:27:54;101974.28;;;7.35;100.00
18436;BME280;9346;52.006;4.720;2023-11-18T07:30:22;101981.66;;;7.34;100.00
18436;BME280;9346;52.006;4.720;2023-11-18T07:32:50;101977.63;;;7.37;100.00
18436;BME280;9346;52.006;4.720;2023-11-18T07:35:19;101976.56;;;7.38;100.00
18436;BME280;9346;52.006;4.720;2023-11-18T07:37:46;101974.06;;;7.36;100.00
18436;BME280;9346;52.006;4.720;2023-11-18T07:40:12;101967.50;;;7.37;100.00
18436;BME280;9346;52.006;4.720;2023-11-18T07:42:47;101969.19;;;7.38;100.00
18436;BME280;9346;52.006;4.720;2023-11-18T07:45:14;101957.16;;;7.39;100.00
18436;BME280;9346;52.006;4.720;2023-11-18T07:47:43;101962.19;;;7.42;100.00
18436;BME280;9346;52.006;4.720;2023-11-18T07:50:10;101949.56;;;7.41;100.00
18436;BME280;9346;52.006;4.720;2023-11-18T07:52:41;101951.00;;;7.44;100.00
18436;BME280;9346;52.006;4.720;2023-11-18T07:55:08;101942.53;;;7.45;100.00
18436;BME280;9346;52.006;4.720;2023-11-18T07:57:38;101944.44;;;7.45;100.00
18436;BME280;9346;52.006;4.720;2023-11-18T08:00:06;101941.47;;;7.46;100.00
18436;BME280;9346;52.006;4.720;2023-11-18T08:02:34;101938.28;;;7.49;100.00
18436;BME280;9346;52.006;4.720;2023-11-18T08:05:02;101935.53;;;7.49;100.00
18436;BME280;9346;52.006;4.720;2023-11-18T08:07:33;101928.38;;;7.48;100.00
18436;BME280;9346;52.006;4.720;2023-11-18T08:10:02;101927.94;;;7.51;100.00
18436;BME280;9346;52.006;4.720;2023-11-18T08:12:30;101918.00;;;7.50;100.00
18436;BME280;9346;52.006;4.720;2023-11-18T08:14:57;101925.19;;;7.51;100.00
18436;BME280;9346;52.006;4.720;2023-11-18T08:17:24;101928.53;;;7.53;100.00
18436;BME280;9346;52.006;4.720;2023-11-18T08:19:52;101920.28;;;7.53;100.00
18436;BME280;9346;52.006;4.720;2023-11-18T08:22:19;101911.63;;;7.56;100.00
18436;BME280;9346;52.006;4.720;2023-11-18T08:24:48;101906.75;;;7.58;100.00
18436;BME280;9346;52.006;4.720;2023-11-18T08:27:17;101915.59;;;7.60;100.00
18436;BME280;9346;52.006;4.720;2023-11-18T08:29:44;101917.25;;;7.61;100.00
18436;BME280;9346;52.006;4.720;2023-11-18T08:32:14;101922.53;;;7.63;100.00
18436;BME280;9346;52.006;4.720;2023-11-18T08:34:40;101912.38;;;7.63;100.00
18436;BME280;9346;52.006;4.720;2023-11-18T08:37:07;101905.00;;;7.64;100.00
18436;BME280;9346;52.006;4.720;2023-11-18T08:39:34;101900.72;;;7.68;100.00
18436;BME280;9346;52.006;4.720;2023-11-18T08:42:01;101894.41;;;7.67;100.00
18436;BME280;9346;52.006;4.720;2023-11-18T08:44:29;101893.34;;;7.68;100.00
18436;BME280;9346;52.006;4.720;2023-11-18T08:46:57;101893.97;;;7.70;100.00
18436;BME280;9346;52.006;4.720;2023-11-18T08:49:24;101875.81;;;7.69;100.00
18436;BME280;9346;52.006;4.720;2023-11-18T08:51:55;101855.56;;;7.70;100.00
18436;BME280;9346;52.006;4.720;2023-11-18T08:54:23;101853.88;;;7.69;100.00
18436;BME280;9346;52.006;4.720;2023-11-18T08:56:51;101852.19;;;7.68;100.00
18436;BME280;9346;52.006;4.720;2023-11-18T08:59:18;101845.63;;;7.69;100.00
18436;BME280;9346;52.006;4.720;2023-11-18T09:01:52;101845.78;;;7.74;100.00
18436;BME280;9346;52.006;4.720;2023-11-18T09:04:22;101839.47;;;7.74;100.00
18436;BME280;9346;52.006;4.720;2023-11-18T09:06:49;101843.91;;;7.75;100.00
18436;BME280;9346;52.006;4.720;2023-11-18T09:09:18;101831.47;;;7.72;100.00
18436;BME280;9346;52.006;4.720;2023-11-18T09:11:54;101838.66;;;7.73;100.00
18436;BME280;9346;52.006;4.720;2023-11-18T09:14:23;101823.00;;;7.74;100.00
18436;BME280;9346;52.006;4.720;2023-11-18T09:16:53;101797.28;;;7.75;100.00
18436;BME280;9346;52.006;4.720;2023-11-18T09:19:21;101778.66;;;7.77;100.00
18436;BME280;9346;52.006;4.720;2023-11-18T09:21:48;101778.59;;;7.83;100.00
18436;BME280;9346;52.006;4.720;2023-11-18T09:24:17;101782.38;;;7.82;100.00
18436;BME280;9346;52.006;4.720;2023-11-18T09:26:45;101778.59;;;7.83;100.00
18436;BME280;9346;52.006;4.720;2023-11-18T09:29:15;101789.31;;;7.85;100.00
18436;BME280;9346;52.006;4.720;2023-11-18T09:31:43;101786.13;;;7.88;100.00
18436;BME280;9346;52.006;4.720;2023-11-18T09:34:15;101792.34;;;7.95;100.00
18436;BME280;9346;52.006;4.720;2023-11-18T09:36:42;101786.25;;;8.04;100.00
18436;BME280;9346;52.006;4.720;2023-11-18T09:39:14;101785.44;;;8.04;100.00
18436;BME280;9346;52.006;4.720;2023-11-18T09:41:54;101783.91;;;8.08;100.00
18436;BME280;9346;52.006;4.720;2023-11-18T09:44:22;101787.59;;;8.13;100.00
18436;BME280;9346;52.006;4.720;2023-11-18T09:46:57;101782.13;;;8.13;100.00
18436;BME280;9346;52.006;4.720;2023-11-18T09:49:32;101782.72;;;8.15;100.00
18436;BME280;9346;52.006;4.720;2023-11-18T09:52:06;101787.88;;;8.23;100.00
18436;BME280;9346;52.006;4.720;2023-11-18T09:54:36;101792.28;;;8.24;100.00
18436;BME280;9346;52.006;4.720;2023-11-18T09:57:10;101777.53;;;8.25;100.00
18436;BME280;9346;52.006;4.720;2023-11-18T09:59:45;101774.53;;;8.27;100.00
18436;BME280;9346;52.006;4.720;2023-11-18T10:02:20;101766.66;;;8.30;100.00
18436;BME280;9346;52.006;4.720;2023-11-18T10:04:54;101754.84;;;8.30;100.00
18436;BME280;9346;52.006;4.720;2023-11-18T10:07:25;101760.94;;;8.32;100.00
18436;BME280;9346;52.006;4.720;2023-11-18T10:09:58;101777.31;;;8.38;100.00
18436;BME280;9346;52.006;4.720;2023-11-18T10:12:27;101775.28;;;8.45;100.00
18436;BME280;9346;52.006;4.720;2023-11-18T10:14:55;101768.22;;;8.49;100.00
18436;BME280;9346;52.006;4.720;2023-11-18T10:17:23;101761.06;;;8.48;100.00
18436;BME280;9346;52.006;4.720;2023-11-18T10:19:55;101773.94;;;8.48;100.00
18436;BME280;9346;52.006;4.720;2023-11-18T10:22:26;101763.56;;;8.50;100.00
18436;BME280;9346;52.006;4.720;2023-11-18T10:24:55;101762.88;;;8.54;100.00
18436;BME280;9346;52.006;4.720;2023-11-18T10:27:24;101740.28;;;8.52;100.00
18436;BME280;9346;52.006;4.720;2023-11-18T10:29:55;101726.09;;;8.55;100.00
18436;BME280;9346;52.006;4.720;2023-11-18T10:32:23;101714.25;;;8.55;100.00
18436;BME280;9346;52.006;4.720;2023-11-18T10:34:56;101714.50;;;8.53;100.00
18436;BME280;9346;52.006;4.720;2023-11-18T10:37:25;101708.41;;;8.51;100.00
18436;BME280;9346;52.006;4.720;2023-11-18T10:39:56;101712.13;;;8.57;100.00
18436;BME280;9346;52.006;4.720;2023-11-18T10:42:26;101722.25;;;8.56;100.00
18436;BME280;9346;52.006;4.720;2023-11-18T10:44:57;101726.22;;;8.60;100.00
18436;BME280;9346;52.006;4.720;2023-11-18T10:47:25;101727.41;;;8.64;100.00
18436;BME280;9346;52.006;4.720;2023-11-18T10:49:55;101716.03;;;8.61;100.00
18436;BME280;9346;52.006;4.720;2023-11-18T10:52:23;101707.00;;;8.60;100.00
18436;BME280;9346;52.006;4.720;2023-11-18T10:54:52;101694.91;;;8.61;100.00
18436;BME280;9346;52.006;4.720;2023-11-18T10:57:20;101679.53;;;8.60;100.00
18436;BME280;9346;52.006;4.720;2023-11-18T11:00:00;101659.22;;;8.61;100.00
18436;BME280;9346;52.006;4.720;2023-11-18T11:02:30;101643.34;;;8.63;100.00
18436;BME280;9346;52.006;4.720;2023-11-18T11:05:09;101630.19;;;8.65;100.00
18436;BME280;9346;52.006;4.720;2023-11-18T11:07:42;101609.78;;;8.61;100.00
18436;BME280;9346;52.006;4.720;2023-11-18T11:10:11;101572.19;;;8.62;100.00
18436;BME280;9346;52.006;4.720;2023-11-18T11:12:43;101552.13;;;8.61;100.00
18436;BME280;9346;52.006;4.720;2023-11-18T11:15:22;101560.94;;;8.63;100.00
18436;BME280;9346;52.006;4.720;2023-11-18T11:17:54;101566.44;;;8.63;100.00
18436;BME280;9346;52.006;4.720;2023-11-18T11:20:33;101563.69;;;8.63;100.00
18436;BME280;9346;52.006;4.720;2023-11-18T11:23:16;101560.94;;;8.63;100.00
18436;BME280;9346;52.006;4.720;2023-11-18T11:25:55;101561.28;;;8.67;100.00
18436;BME280;9346;52.006;4.720;2023-11-18T11:28:33;101543.47;;;8.69;100.00
18436;BME280;9346;52.006;4.720;2023-11-18T11:31:12;101554.22;;;8.71;100.00
18436;BME280;9346;52.006;4.720;2023-11-18T11:33:54;101541.69;;;8.75;100.00
18436;BME280;9346;52.006;4.720;2023-11-18T11:36:35;101500.72;;;8.73;100.00
18436;BME280;9346;52.006;4.720;2023-11-18T11:39:05;101471.06;;;8.75;100.00
18436;BME280;9346;52.006;4.720;2023-11-18T11:41:37;101455.25;;;8.82;100.00
18436;BME280;9346;52.006;4.720;2023-11-18T11:44:05;101443.28;;;8.88;100.00
18436;BME280;9346;52.006;4.720;2023-11-18T11:46:33;101445.53;;;8.91;100.00
18436;BME280;9346;52.006;4.720;2023-11-18T11:49:03;101442.78;;;8.91;100.00
18436;BME280;9346;52.006;4.720;2023-11-18T11:51:46;101427.22;;;8.97;100.00
18436;BME280;9346;52.006;4.720;2023-11-18T11:54:19;101439.66;;;8.99;100.00
18436;BME280;9346;52.006;4.720;2023-11-18T11:56:49;101452.28;;;9.00;100.00
18436;BME280;9346;52.006;4.720;2023-11-18T11:59:35;101436.66;;;9.01;100.00
18436;BME280;9346;52.006;4.720;2023-11-18T12:02:03;101436.66;;;9.01;100.00
18436;BME280;9346;52.006;4.720;2023-11-18T12:04:36;101425.16;;;9.04;100.00
18436;BME280;9346;52.006;4.720;2023-11-18T12:07:09;101411.19;;;9.05;100.00
18436;BME280;9346;52.006;4.720;2023-11-18T12:09:40;101415.00;;;9.04;100.00
18436;BME280;9346;52.006;4.720;2023-11-18T12:12:16;101414.75;;;9.06;100.00
18436;BME280;9346;52.006;4.720;2023-11-18T12:14:51;101406.00;;;9.09;100.00
18436;BME280;9346;52.006;4.720;2023-11-18T12:17:21;101390.91;;;9.11;100.00
18436;BME280;9346;52.006;4.720;2023-11-18T12:19:50;101391.16;;;9.10;100.00
18436;BME280;9346;52.006;4.720;2023-11-18T12:22:26;101417.59;;;9.11;100.00
18436;BME280;9346;52.006;4.720;2023-11-18T12:25:28;101448.97;;;9.15;100.00
18436;BME280;9346;52.006;4.720;2023-11-18T12:27:56;101439.13;;;9.19;100.00
18436;BME280;9346;52.006;4.720;2023-11-18T12:30:48;101400.41;;;9.21;100.00
18436;BME280;9346;52.006;4.720;2023-11-18T12:33:21;101377.00;;;9.18;100.00
18436;BME280;9346;52.006;4.720;2023-11-18T12:39:34;101321.69;;;9.14;100.00
18436;BME280;9346;52.006;4.720;2023-11-18T12:42:09;101325.53;;;9.13;100.00
18436;BME280;9346;52.006;4.720;2023-11-18T12:45:01;101326.44;;;9.19;100.00
18436;BME280;9346;52.006;4.720;2023-11-18T12:47:42;101327.88;;;9.22;100.00
18436;BME280;9346;52.006;4.720;2023-11-18T12:50:11;101331.19;;;9.24;100.00
18436;BME280;9346;52.006;4.720;2023-11-18T12:52:49;101328.78;;;9.27;100.00
18436;BME280;9346;52.006;4.720;2023-11-18T12:55:20;101332.31;;;9.28;100.00
18436;BME280;9346;52.006;4.720;2023-11-18T12:57:48;101330.44;;;9.28;100.00
18436;BME280;9346;52.006;4.720;2023-11-18T13:00:19;101320.28;;;9.29;100.00
18436;BME280;9346;52.006;4.720;2023-11-18T13:02:52;101299.94;;;9.30;100.00
18436;BME280;9346;52.006;4.720;2023-11-18T13:05:20;101290.03;;;9.29;100.00
18436;BME280;9346;52.006;4.720;2023-11-18T13:07:55;101278.69;;;9.25;100.00
18436;BME280;9346;52.006;4.720;2023-11-18T13:10:28;101277.59;;;9.26;100.00
18436;BME280;9346;52.006;4.720;2023-11-18T13:12:56;101254.81;;;9.26;100.00
18436;BME280;9346;52.006;4.720;2023-11-18T13:15:26;101245.22;;;9.28;100.00